Cobleskill, New York
Current Conditions -  °F | °C
As of 11:15 AM on Thursday 23 Oct 2014 (Local Time) from KNY0 Reporting Station
Overcast Overcast  
Wind Chill: 42°   Ceiling: 1900
Heat Index: 45°   Visibility: 4mi
Dew Point: 45°   Wind: 6mph
Humidity: 98%   Direction: 280°W
Pressure: 29.87"   Gusts: NA
Location:  42.68°N, 74.48°W
Report Text: KNY0 231515Z AUTO 28005KT 4SM SCT003 SCT011 OVC019 07/07 A2987 RMK AO2 P0003 T00740071
Loading
Personal Weather Stations






























Interactive Weather Map
Tropical Storm Tracking
New forecast layout! Learn more

10-Day Weather Forecast

Advertisements
Track Severe Weather on mobile